Aérodrome :
LOGIN :

S'inscrire | Disclaimer

   EN    FR    IT 

 










Légende :    VFR   VFR Marginal   IFR   IFR Intensif   IFR Très Intensif
Visi : 
Plafond : 
>= 8 km
>= 3000ft
5 à 8 km
1000 à 3000 ft
1500m à 5 km
500 à 1000 ft
800 à 1500m
200 à 500 ft
< 800m
< 200 ft
Symboles :   Orages  Brouillard  Fortes neiges  Fortes précipitations  Vent > 20 kt
SIGMETs :   Divers  Orages  Givrage  Turbulence  Onde Orograph.  Cendres Volcan.






- Altitude de l'aérodrome : 242 ft
- Code IATA : DUB


EIDW - Dublin

DERNIER METAR :
  • 211930Z VRB02KT 9999 FEW023 12/11 Q1015 NOSIG

METARs EXPIRÉS :
  • 211900Z 30003KT 9999 FEW023 SCT250 13/11 Q1015 NOSIG
  • 211830Z VRB02KT 9999 FEW023 SCT250 14/11 Q1015 NOSIG
  • 211800Z VRB02KT 9999 FEW023 SCT250 15/12 Q1015 NOSIG
  • 211730Z 13004KT 070V160 9999 FEW023 16/12 Q1015 NOSIG
  • 211700Z 16004KT 100V240 9999 FEW023 18/12 Q1015 NOSIG

TAF TAF EIDW
Valide du 21 à 18h jusqu'au 22 à 18h UTC


211700Z 2118/2218 VRB03KT 9999 SCT015 BKN025
BECMG 2121/2123 26005KT
TEMPO 2121/2210 BKN012
PROB30
TEMPO 2203/2206 3000 BR BKN008
BECMG 2203/2205 22005KT
BECMG 2207/2209 23010KT
TEMPO 2210/2215 23013G24KT



MET'MAP, la Météo Aéronautique d'un coup d'oeil ! - Copyright ORBIFLY Décembre 2007 - Disclaimer

ORBIFLY MET'MAP TEAM :

Programmation & Développement : Alexandra Zaïnal
Sur une idée originale de : Baudouin d'Aumeries
Assistance à la programmation : Marc-Olivier Méhu
Soutien technique & logistique : Manuel Goepfert

Contact : metmap@orbifly.com




SOURCES & CREDITS :

   NOAA